Time;durP1;ratioP1;P1;durP2;ratioP2;P2;SDS_P1;SDS_P2;PMS_P1;PMS_P2;Temp;Humidity;BMP_temperature;BMP_pressure;BME280_temperature;BME280_humidity;BME280_pressure;Samples;Min_cycle;Max_cycle;Signal;HPM_P1;HPM_P2
2022/10/09 00:00:02;;;;;;;12.07;2.50;;;9.50;99.90;;;;;;4953412;28;20039;-84
2022/10/09 00:02:28;;;;;;;11.38;2.30;;;9.40;99.90;;;;;;4936025;29;20035;-83
2022/10/09 00:04:53;;;;;;;9.68;2.70;;;9.40;99.90;;;;;;4933887;29;20051;-84
2022/10/09 00:07:19;;;;;;;9.93;2.53;;;9.40;99.90;;;;;;4904291;29;20146;-83
2022/10/09 00:09:45;;;;;;;11.85;2.67;;;9.30;99.90;;;;;;4945954;28;20048;-84
2022/10/09 00:12:11;;;;;;;6.28;2.67;;;9.30;99.90;;;;;;4930002;29;20044;-84
2022/10/09 00:14:36;;;;;;;8.73;2.10;;;9.20;99.90;;;;;;4960733;28;20035;-84
2022/10/09 00:17:02;;;;;;;7.50;2.47;;;9.20;99.90;;;;;;4898542;29;20043;-84
2022/10/09 00:19:28;;;;;;;11.30;3.08;;;9.20;99.90;;;;;;4934535;29;20070;-84
2022/10/09 00:21:53;;;;;;;11.48;3.05;;;9.10;99.90;;;;;;4946342;28;20035;-84
2022/10/09 00:24:19;;;;;;;9.27;2.72;;;9.10;99.90;;;;;;4923951;29;20047;-84
2022/10/09 00:26:47;;;;;;;12.32;3.17;;;9.00;99.90;;;;;;4948602;28;20058;-84
2022/10/09 00:29:12;;;;;;;13.80;3.70;;;9.00;99.90;;;;;;4948563;28;20350;-84
2022/10/09 00:31:38;;;;;;;6.63;2.60;;;9.00;99.90;;;;;;4897667;29;20040;-84
2022/10/09 00:34:04;;;;;;;10.75;3.45;;;8.90;99.90;;;;;;4917557;29;20075;-84
2022/10/09 00:36:29;;;;;;;7.53;2.95;;;8.80;99.90;;;;;;4920100;29;20039;-84
2022/10/09 00:38:55;;;;;;;8.73;2.95;;;8.80;99.90;;;;;;4950074;28;20037;-84
2022/10/09 00:41:25;;;;;;;10.65;3.83;;;8.80;99.90;;;;;;4919356;29;20046;-84
2022/10/09 00:43:59;;;;;;;8.48;3.90;;;8.70;99.90;;;;;;4906739;29;20492;-84
2022/10/09 00:46:32;;;;;;;12.77;4.15;;;8.60;99.90;;;;;;4934338;29;20385;-84
2022/10/09 00:49:23;;;;;;;8.25;3.42;;;8.60;99.90;;;;;;4931642;29;20394;-84
2022/10/09 00:51:50;;;;;;;8.98;3.95;;;8.60;99.90;;;;;;4954525;28;20039;-84
2022/10/09 00:54:19;;;;;;;9.00;3.80;;;8.50;99.90;;;;;;4904880;29;20047;-84
2022/10/09 00:56:45;;;;;;;10.80;4.15;;;8.60;99.90;;;;;;4920345;29;20047;-84
2022/10/09 00:59:12;;;;;;;9.32;4.47;;;8.60;99.90;;;;;;4929523;29;20721;-84
2022/10/09 01:01:39;;;;;;;8.95;4.78;;;8.50;99.90;;;;;;4946438;28;20039;-84
2022/10/09 01:04:05;;;;;;;11.43;3.65;;;8.50;99.90;;;;;;4902253;29;20797;-84
2022/10/09 01:06:33;;;;;;;10.70;3.80;;;8.50;99.90;;;;;;4946842;28;20040;-84
2022/10/09 01:09:06;;;;;;;9.23;3.72;;;8.40;99.90;;;;;;4948518;28;20040;-84
2022/10/09 01:11:49;;;;;;;10.98;5.07;;;8.40;99.90;;;;;;4937059;29;20067;-84
2022/10/09 01:14:27;;;;;;;7.93;4.07;;;8.40;99.90;;;;;;4935935;29;20458;-84
2022/10/09 01:17:13;;;;;;;10.35;4.40;;;8.40;99.90;;;;;;4944377;28;20128;-84
2022/10/09 01:20:24;;;;;;;12.23;4.13;;;8.30;99.90;;;;;;4920130;29;20396;-84
2022/10/09 01:23:10;;;;;;;9.00;4.45;;;8.30;99.90;;;;;;4877977;29;20060;-84
2022/10/09 01:25:54;;;;;;;11.20;4.25;;;8.30;99.90;;;;;;4912989;29;20040;-84
2022/10/09 01:28:22;;;;;;;12.90;5.25;;;8.30;99.90;;;;;;4917799;29;20036;-83
2022/10/09 01:30:48;;;;;;;15.23;5.40;;;8.20;99.90;;;;;;4912807;29;20036;-84
2022/10/09 01:33:15;;;;;;;11.70;4.65;;;8.20;99.90;;;;;;4928729;29;20111;-83
2022/10/09 01:35:43;;;;;;;6.03;3.10;;;8.20;99.90;;;;;;4911859;29;20420;-84
2022/10/09 01:38:10;;;;;;;7.40;3.22;;;8.20;99.90;;;;;;4929390;29;20038;-84
2022/10/09 01:40:36;;;;;;;9.90;5.18;;;8.10;99.90;;;;;;4929739;29;20468;-83
2022/10/09 01:43:02;;;;;;;9.20;5.05;;;8.10;99.90;;;;;;4929822;29;20071;-84
2022/10/09 01:45:42;;;;;;;10.45;5.53;;;8.10;99.90;;;;;;4929505;29;20079;-84
2022/10/09 01:48:12;;;;;;;10.82;4.85;;;8.00;99.90;;;;;;4949160;28;20475;-84
2022/10/09 01:50:42;;;;;;;13.75;4.55;;;8.00;99.90;;;;;;4944099;28;20047;-84
2022/10/09 01:53:13;;;;;;;11.85;4.40;;;8.00;99.90;;;;;;4917890;29;20051;-84
2022/10/09 01:56:13;;;;;;;10.23;4.90;;;8.00;99.90;;;;;;4943521;28;20028;-84
2022/10/09 01:58:47;;;;;;;9.55;5.43;;;8.00;99.90;;;;;;4885185;29;20047;-84
2022/10/09 02:01:16;;;;;;;10.60;5.57;;;8.00;99.90;;;;;;4943626;28;20047;-84
2022/10/09 02:03:45;;;;;;;8.02;3.97;;;8.00;99.90;;;;;;4928968;29;20048;-84
2022/10/09 02:06:14;;;;;;;9.25;4.13;;;7.90;99.90;;;;;;4928090;29;20043;-84
2022/10/09 02:08:42;;;;;;;8.15;4.78;;;7.90;99.90;;;;;;4931434;29;20052;-83
2022/10/09 02:11:10;;;;;;;11.57;5.45;;;7.80;99.90;;;;;;4927007;29;20044;-83
2022/10/09 02:13:37;;;;;;;9.15;4.95;;;7.90;99.90;;;;;;4917395;29;20036;-84
2022/10/09 02:16:30;;;;;;;11.65;4.43;;;7.80;99.90;;;;;;4933738;29;20061;-84
2022/10/09 02:18:59;;;;;;;13.55;5.57;;;7.80;99.90;;;;;;4947893;28;20054;-83
2022/10/09 02:21:45;;;;;;;7.82;4.32;;;7.80;99.90;;;;;;4919227;29;20054;-83
2022/10/09 02:24:15;;;;;;;11.88;5.38;;;7.80;99.90;;;;;;4949708;28;20063;-83
2022/10/09 02:26:41;;;;;;;12.07;5.95;;;7.70;99.90;;;;;;4918896;29;20075;-83
2022/10/09 02:29:07;;;;;;;10.45;4.75;;;7.70;99.90;;;;;;4946310;28;20123;-83
2022/10/09 02:31:35;;;;;;;8.40;4.93;;;7.70;99.90;;;;;;4914373;29;20107;-83
2022/10/09 02:34:04;;;;;;;13.10;5.18;;;7.70;99.90;;;;;;4906794;29;20054;-83
2022/10/09 02:36:30;;;;;;;11.05;5.40;;;7.70;99.90;;;;;;4905732;29;20039;-83
2022/10/09 02:38:56;;;;;;;12.63;5.85;;;7.70;99.90;;;;;;4935034;29;20412;-83
2022/10/09 02:41:23;;;;;;;11.65;5.25;;;7.60;99.90;;;;;;4919429;29;20047;-83
2022/10/09 02:43:49;;;;;;;14.52;6.70;;;7.60;99.90;;;;;;4915641;29;20054;-83
2022/10/09 02:46:15;;;;;;;13.43;5.30;;;7.60;99.90;;;;;;4934974;29;20085;-83
2022/10/09 02:48:41;;;;;;;10.27;5.20;;;7.60;99.90;;;;;;4902509;29;20047;-84
2022/10/09 02:51:07;;;;;;;12.30;5.88;;;7.60;99.90;;;;;;4919769;29;20035;-83
2022/10/09 02:53:32;;;;;;;9.50;5.28;;;7.60;99.90;;;;;;4934647;29;20056;-83
2022/10/09 02:55:58;;;;;;;7.50;4.85;;;7.50;99.90;;;;;;4904682;29;20068;-83
2022/10/09 02:58:24;;;;;;;10.43;4.53;;;7.50;99.90;;;;;;4930490;29;20095;-83
2022/10/09 03:00:50;;;;;;;5.85;4.18;;;7.50;99.90;;;;;;4930153;29;20031;-84
2022/10/09 03:03:17;;;;;;;6.28;4.13;;;7.40;99.90;;;;;;4914592;29;20161;-83
2022/10/09 03:05:42;;;;;;;7.45;3.95;;;7.40;99.90;;;;;;4901049;29;20515;-83
2022/10/09 03:08:08;;;;;;;9.43;4.75;;;7.30;99.90;;;;;;4898276;29;20047;-84
2022/10/09 03:10:36;;;;;;;9.43;4.38;;;7.30;99.90;;;;;;4916121;29;20035;-84
2022/10/09 03:13:02;;;;;;;12.05;5.93;;;7.30;99.90;;;;;;4919069;29;20527;-83
2022/10/09 03:15:29;;;;;;;9.35;4.72;;;7.20;99.90;;;;;;4916539;29;20039;-83
2022/10/09 03:17:54;;;;;;;9.65;5.18;;;7.30;99.90;;;;;;4917137;29;20452;-83
2022/10/09 03:20:20;;;;;;;13.45;4.63;;;7.30;99.90;;;;;;4949690;28;20098;-83
2022/10/09 03:22:45;;;;;;;9.00;3.97;;;7.30;99.90;;;;;;4921721;29;21651;-83
2022/10/09 03:25:11;;;;;;;6.47;4.47;;;7.30;99.90;;;;;;4921028;29;20245;-83
2022/10/09 03:27:37;;;;;;;7.25;4.07;;;7.30;99.90;;;;;;4921410;29;20044;-83
2022/10/09 03:30:03;;;;;;;8.60;4.05;;;7.40;99.90;;;;;;4932286;28;20471;-83
2022/10/09 03:32:29;;;;;;;8.70;3.55;;;7.30;99.90;;;;;;4902648;29;20039;-83
2022/10/09 03:34:54;;;;;;;4.90;3.58;;;7.30;99.90;;;;;;4913975;29;20158;-83
2022/10/09 03:37:20;;;;;;;5.80;3.70;;;7.30;99.90;;;;;;4919123;29;20419;-83
2022/10/09 03:39:45;;;;;;;4.88;3.42;;;7.20;99.90;;;;;;4934147;29;20035;-83
2022/10/09 03:42:11;;;;;;;5.45;3.10;;;7.20;99.90;;;;;;4916705;29;20040;-83
2022/10/09 03:44:36;;;;;;;4.38;2.78;;;7.10;99.90;;;;;;4926864;29;20516;-82
2022/10/09 03:47:02;;;;;;;5.72;2.55;;;7.00;99.90;;;;;;4943368;28;20059;-83
2022/10/09 03:49:27;;;;;;;4.65;2.67;;;7.00;99.90;;;;;;4929890;29;20046;-83
2022/10/09 03:51:53;;;;;;;7.10;3.22;;;7.00;99.90;;;;;;4944304;28;20036;-83
2022/10/09 03:54:18;;;;;;;8.55;3.33;;;6.90;99.90;;;;;;4919066;29;20070;-83
2022/10/09 03:56:44;;;;;;;6.65;3.13;;;6.90;99.90;;;;;;4940699;28;20507;-83
2022/10/09 03:59:10;;;;;;;10.75;4.22;;;6.90;99.90;;;;;;4918436;29;20040;-83
2022/10/09 04:01:35;;;;;;;8.63;3.85;;;6.90;99.90;;;;;;4931127;29;20054;-83
2022/10/09 04:04:01;;;;;;;8.52;5.00;;;6.90;99.90;;;;;;4949806;28;20050;-83
2022/10/09 04:06:27;;;;;;;6.78;4.35;;;7.00;99.90;;;;;;4914408;29;20047;-83
2022/10/09 04:08:52;;;;;;;10.23;5.35;;;7.00;99.90;;;;;;4945387;28;20039;-83
2022/10/09 04:11:18;;;;;;;7.50;3.58;;;7.00;99.90;;;;;;4945850;28;20055;-83
2022/10/09 04:13:44;;;;;;;5.68;3.05;;;7.00;99.90;;;;;;4931374;29;20405;-83
2022/10/09 04:16:11;;;;;;;10.88;3.35;;;6.90;99.90;;;;;;4946546;28;20035;-83
2022/10/09 04:18:42;;;;;;;8.82;4.22;;;6.80;99.90;;;;;;4897686;29;20035;-83
2022/10/09 04:21:07;;;;;;;11.32;3.83;;;6.80;99.90;;;;;;4927075;29;20044;-83
2022/10/09 04:23:33;;;;;;;9.60;4.22;;;6.90;99.90;;;;;;4911684;29;20052;-83
2022/10/09 04:25:59;;;;;;;11.30;3.10;;;6.90;99.90;;;;;;4942125;28;20036;-82
2022/10/09 04:28:26;;;;;;;7.20;3.78;;;6.90;99.90;;;;;;4903719;29;20067;-83
2022/10/09 04:30:51;;;;;;;5.63;3.63;;;6.90;99.90;;;;;;4939907;28;20496;-83
2022/10/09 04:33:17;;;;;;;8.35;3.42;;;6.90;99.90;;;;;;4911765;29;20047;-83
2022/10/09 04:35:44;;;;;;;7.22;3.75;;;6.80;99.90;;;;;;4943086;28;20090;-83
2022/10/09 04:38:09;;;;;;;5.18;2.78;;;6.80;99.90;;;;;;4927173;29;20381;-83
2022/10/09 04:40:35;;;;;;;7.47;2.88;;;6.80;99.90;;;;;;4941792;28;20130;-83
2022/10/09 04:43:01;;;;;;;11.20;3.80;;;6.70;99.90;;;;;;4942108;28;20067;-83
2022/10/09 04:45:26;;;;;;;6.63;3.08;;;6.70;99.90;;;;;;4912613;29;20035;-82
2022/10/09 04:47:52;;;;;;;7.40;3.00;;;6.60;99.90;;;;;;4926281;29;20086;-83
2022/10/09 04:50:17;;;;;;;7.15;2.90;;;6.60;99.90;;;;;;4912150;29;20038;-83
2022/10/09 04:52:43;;;;;;;4.40;2.80;;;6.60;99.90;;;;;;4922058;29;20099;-82
2022/10/09 04:55:09;;;;;;;6.38;2.83;;;6.50;99.90;;;;;;4941838;28;20086;-83
2022/10/09 04:57:34;;;;;;;3.75;2.58;;;6.40;99.90;;;;;;4909487;29;20044;-82
2022/10/09 05:00:00;;;;;;;8.75;3.33;;;6.40;99.90;;;;;;4943696;28;20122;-82
2022/10/09 05:02:25;;;;;;;4.47;2.85;;;6.40;99.90;;;;;;4928831;29;20036;-83
2022/10/09 05:04:51;;;;;;;6.20;3.00;;;6.30;99.90;;;;;;4914718;29;20078;-83
2022/10/09 05:07:16;;;;;;;4.28;2.65;;;6.30;99.90;;;;;;4942160;28;20129;-83
2022/10/09 05:09:42;;;;;;;3.92;2.78;;;6.30;99.90;;;;;;4924712;29;20054;-83
2022/10/09 05:12:07;;;;;;;5.97;2.28;;;6.30;99.90;;;;;;4911529;29;20110;-83
2022/10/09 05:14:33;;;;;;;7.10;2.97;;;6.30;99.90;;;;;;4912301;29;20069;-83
2022/10/09 05:17:03;;;;;;;7.82;3.75;;;6.20;99.90;;;;;;4936365;28;20390;-82
2022/10/09 05:19:30;;;;;;;5.70;3.55;;;6.20;99.90;;;;;;4898380;29;20102;-83
2022/10/09 05:21:55;;;;;;;9.55;3.22;;;6.20;99.90;;;;;;4941793;28;20047;-82
2022/10/09 05:24:21;;;;;;;8.15;3.13;;;6.10;99.90;;;;;;4909928;29;20031;-82
2022/10/09 05:26:46;;;;;;;4.95;3.28;;;6.10;99.90;;;;;;4939870;28;20075;-82
2022/10/09 05:29:12;;;;;;;7.00;3.40;;;6.10;99.90;;;;;;4925922;29;20070;-83
2022/10/09 05:31:37;;;;;;;5.78;2.90;;;6.00;99.90;;;;;;4938836;28;20412;-83
2022/10/09 05:34:04;;;;;;;5.82;3.55;;;6.00;99.90;;;;;;4942309;28;20055;-82
2022/10/09 05:36:29;;;;;;;5.78;3.03;;;6.00;99.90;;;;;;4923237;29;20050;-83
2022/10/09 05:38:56;;;;;;;7.35;2.85;;;6.00;99.90;;;;;;4927002;29;20036;-83
2022/10/09 05:41:21;;;;;;;7.60;2.97;;;6.00;99.90;;;;;;4922631;29;20076;-83
2022/10/09 05:43:48;;;;;;;6.00;3.67;;;5.90;99.90;;;;;;4909684;29;20531;-82
2022/10/09 05:46:24;;;;;;;4.40;3.30;;;6.00;99.90;;;;;;4944409;28;20043;-83
2022/10/09 05:49:04;;;;;;;6.38;3.33;;;6.00;99.90;;;;;;4943618;28;20047;-83
2022/10/09 05:51:32;;;;;;;8.30;4.50;;;6.00;99.90;;;;;;4909041;29;20031;-83
2022/10/09 05:54:00;;;;;;;7.82;4.00;;;5.90;99.90;;;;;;4940365;28;20055;-83
2022/10/09 05:56:37;;;;;;;4.47;3.92;;;5.90;99.90;;;;;;4929122;29;20040;-83
2022/10/09 05:59:06;;;;;;;5.28;3.50;;;5.90;99.90;;;;;;4906837;29;20035;-82
2022/10/09 06:01:33;;;;;;;6.82;3.80;;;6.00;99.90;;;;;;4921418;29;20114;-83
2022/10/09 06:03:59;;;;;;;9.90;2.80;;;6.00;99.90;;;;;;4947398;28;20040;-83
2022/10/09 06:06:28;;;;;;;7.55;3.10;;;6.00;99.90;;;;;;4931040;29;20087;-82
2022/10/09 06:08:54;;;;;;;6.68;3.40;;;6.00;99.90;;;;;;4932201;29;20319;-83
2022/10/09 06:11:30;;;;;;;14.00;3.58;;;6.00;99.90;;;;;;4946526;28;20395;-83
2022/10/09 06:14:00;;;;;;;6.50;3.20;;;6.00;99.90;;;;;;4929471;29;20123;-82
2022/10/09 06:16:28;;;;;;;3.90;2.80;;;6.00;99.90;;;;;;4930877;29;20076;-84
2022/10/09 06:18:54;;;;;;;5.82;2.45;;;6.00;99.90;;;;;;4945285;28;20039;-85
2022/10/09 06:55:07;;;;;;;7.53;3.38;;;7.70;99.90;;;;;;4917015;29;20074;-86
2022/10/09 06:57:33;;;;;;;5.43;3.20;;;7.70;99.90;;;;;;4927257;29;20457;-83
2022/10/09 06:59:58;;;;;;;6.57;4.22;;;7.70;99.90;;;;;;4946643;28;20043;-83
2022/10/09 07:02:24;;;;;;;11.88;4.50;;;7.80;99.90;;;;;;4910314;29;20048;-83
2022/10/09 07:04:50;;;;;;;12.05;4.90;;;7.80;99.90;;;;;;4927366;28;20044;-83
2022/10/09 07:07:15;;;;;;;9.30;5.32;;;7.90;99.90;;;;;;4914029;29;20059;-84
2022/10/09 07:09:41;;;;;;;8.98;4.18;;;7.90;99.90;;;;;;4948357;28;20140;-84
2022/10/09 07:12:06;;;;;;;45.22;8.32;;;8.00;99.90;;;;;;4911044;29;20070;-83
2022/10/09 07:14:32;;;;;;;52.40;9.88;;;8.10;99.90;;;;;;4913979;29;20040;-83
2022/10/09 07:16:57;;;;;;;7.03;4.25;;;8.20;99.90;;;;;;4913118;29;20072;-83
2022/10/09 07:19:23;;;;;;;8.27;4.53;;;8.20;99.90;;;;;;4931633;29;20363;-82
2022/10/09 07:21:49;;;;;;;43.83;7.85;;;8.30;99.90;;;;;;4916200;29;20690;-84
2022/10/09 07:24:16;;;;;;;11.43;3.85;;;8.40;99.90;;;;;;4929541;29;20046;-83
2022/10/09 07:26:43;;;;;;;6.25;3.70;;;8.40;99.90;;;;;;4897167;29;20118;-82
2022/10/09 07:29:17;;;;;;;7.03;4.65;;;8.60;99.90;;;;;;4962328;28;20063;-84
2022/10/09 07:32:01;;;;;;;9.57;4.75;;;8.60;99.90;;;;;;4949396;29;20103;-84
2022/10/09 07:34:27;;;;;;;8.27;4.30;;;8.70;99.90;;;;;;4930920;29;20107;-84
2022/10/09 07:36:53;;;;;;;8.90;4.70;;;8.70;99.90;;;;;;4927373;29;20112;-84
2022/10/09 07:39:19;;;;;;;9.07;4.10;;;8.70;99.90;;;;;;4948951;29;20023;-84
2022/10/09 07:41:46;;;;;;;14.25;4.75;;;8.80;99.90;;;;;;4963194;28;20066;-83
2022/10/09 07:44:12;;;;;;;12.10;4.50;;;8.80;99.90;;;;;;4932015;29;20040;-84
2022/10/09 07:46:37;;;;;;;10.68;4.45;;;8.90;99.90;;;;;;4938686;29;20043;-83
2022/10/09 07:49:03;;;;;;;8.30;4.22;;;8.90;99.90;;;;;;4952802;29;20039;-84
2022/10/09 07:51:30;;;;;;;9.43;4.97;;;9.00;99.90;;;;;;4915146;29;20106;-83
2022/10/09 07:53:56;;;;;;;9.60;5.05;;;9.30;99.90;;;;;;4942603;28;20043;-83
2022/10/09 07:56:28;;;;;;;10.13;4.72;;;9.20;99.90;;;;;;4919137;29;20091;-83
2022/10/09 07:59:10;;;;;;;14.10;4.88;;;9.20;99.90;;;;;;4926274;29;20039;-83
2022/10/09 08:01:36;;;;;;;12.40;5.18;;;9.30;99.90;;;;;;4925932;29;20051;-83
2022/10/09 08:04:02;;;;;;;16.55;4.38;;;9.30;99.90;;;;;;4940688;28;20067;-83
2022/10/09 08:06:28;;;;;;;7.53;4.20;;;9.40;99.90;;;;;;4910049;29;20048;-83
2022/10/09 08:08:56;;;;;;;8.38;4.10;;;9.50;99.90;;;;;;4941642;28;20059;-83
2022/10/09 08:11:24;;;;;;;11.13;4.35;;;9.60;99.90;;;;;;4909733;29;20036;-82
2022/10/09 08:13:50;;;;;;;10.35;4.53;;;9.70;99.90;;;;;;4924816;29;20389;-82
2022/10/09 08:16:16;;;;;;;9.93;4.78;;;9.70;99.90;;;;;;4901317;29;20047;-84
2022/10/09 08:18:41;;;;;;;7.30;4.15;;;9.80;99.90;;;;;;4898414;29;20804;-84
2022/10/09 08:21:16;;;;;;;7.93;3.97;;;9.90;99.90;;;;;;4910711;29;20040;-84
2022/10/09 08:23:42;;;;;;;12.77;4.32;;;9.90;99.90;;;;;;4940002;28;20044;-84
2022/10/09 08:26:16;;;;;;;10.45;4.10;;;10.00;99.90;;;;;;4908585;29;20046;-83
2022/10/09 08:28:42;;;;;;;9.57;4.97;;;10.10;99.90;;;;;;4940150;28;20051;-81
2022/10/09 08:31:13;;;;;;;6.93;4.13;;;10.20;99.90;;;;;;4940342;28;20035;-82
2022/10/09 08:33:39;;;;;;;10.57;4.30;;;10.30;99.90;;;;;;4909164;29;20048;-82
2022/10/09 08:36:09;;;;;;;10.07;4.70;;;11.00;99.90;;;;;;4906254;29;20042;-82
2022/10/09 08:38:36;;;;;;;5.38;4.05;;;10.40;99.90;;;;;;4921787;29;20035;-82
2022/10/09 08:41:18;;;;;;;7.18;4.00;;;10.50;99.90;;;;;;4906616;29;20093;-82
2022/10/09 08:43:46;;;;;;;7.70;4.45;;;10.60;99.90;;;;;;4937113;28;20359;-82
2022/10/09 08:46:27;;;;;;;9.77;4.28;;;10.70;99.90;;;;;;4891005;29;20670;-83
2022/10/09 08:48:54;;;;;;;7.45;3.90;;;10.70;99.90;;;;;;4903750;29;20043;-82
2022/10/09 08:51:26;;;;;;;7.40;4.63;;;11.00;99.90;;;;;;4887214;29;20051;-83
2022/10/09 08:54:01;;;;;;;8.85;4.10;;;10.90;99.90;;;;;;4924529;29;20059;-83
2022/10/09 08:56:28;;;;;;;11.43;4.07;;;11.00;99.90;;;;;;4930191;29;20488;-83
2022/10/09 08:58:54;;;;;;;11.10;4.18;;;11.00;99.90;;;;;;4924571;29;20095;-82
2022/10/09 09:01:28;;;;;;;9.65;3.55;;;11.10;99.90;;;;;;4941614;28;20032;-82
2022/10/09 09:04:22;;;;;;;8.57;4.55;;;11.20;99.90;;;;;;4943327;28;20048;-83
2022/10/09 09:07:19;;;;;;;13.50;4.82;;;11.30;99.90;;;;;;4918358;29;20032;-83
2022/10/09 09:10:04;;;;;;;8.85;4.55;;;11.40;99.90;;;;;;4929539;29;20042;-82
2022/10/09 09:12:55;;;;;;;10.85;4.75;;;11.60;99.90;;;;;;4943435;28;20078;-83
2022/10/09 09:15:45;;;;;;;8.38;4.30;;;11.70;99.90;;;;;;4910257;29;20544;-84
2022/10/09 09:18:35;;;;;;;12.68;4.75;;;11.80;99.90;;;;;;4911886;29;20047;-84
2022/10/09 09:21:18;;;;;;;8.82;3.75;;;11.90;99.90;;;;;;4930613;29;20067;-84
2022/10/09 09:23:47;;;;;;;10.18;4.20;;;12.00;99.90;;;;;;4944927;28;20047;-82
2022/10/09 09:26:16;;;;;;;9.82;4.18;;;12.10;99.90;;;;;;4928872;29;20043;-84
2022/10/09 09:28:43;;;;;;;9.68;3.17;;;12.20;99.90;;;;;;4941752;28;20044;-84
2022/10/09 09:31:14;;;;;;;9.10;2.97;;;12.20;99.90;;;;;;4913659;29;20049;-84
2022/10/09 09:34:37;;;;;;;10.27;3.70;;;12.10;99.90;;;;;;4929160;29;20062;-85
2022/10/09 09:37:03;;;;;;;11.10;3.33;;;12.50;99.90;;;;;;4846028;29;20068;-86
2022/10/09 09:39:32;;;;;;;11.38;3.28;;;12.60;99.90;;;;;;4870544;29;20073;-83
2022/10/09 09:42:12;;;;;;;8.82;2.92;;;12.70;99.90;;;;;;4910547;28;20051;-83
2022/10/09 09:44:43;;;;;;;6.18;3.25;;;12.70;99.90;;;;;;4920277;29;20039;-84
2022/10/09 09:47:14;;;;;;;7.50;3.10;;;12.80;99.90;;;;;;4927577;29;20500;-83
2022/10/09 09:49:53;;;;;;;342.85;42.83;;;12.90;99.90;;;;;;4928598;29;20087;-83
2022/10/09 09:52:18;;;;;;;11.13;3.83;;;12.90;99.90;;;;;;4928163;29;20082;-81
2022/10/09 09:54:47;;;;;;;6.07;2.42;;;13.00;99.90;;;;;;4914162;29;20066;-81
2022/10/09 09:57:20;;;;;;;10.93;2.80;;;13.10;99.90;;;;;;4925133;29;20032;-81
2022/10/09 09:59:45;;;;;;;7.15;2.33;;;13.50;99.90;;;;;;4956661;28;20141;-81
2022/10/09 10:02:18;;;;;;;8.02;2.17;;;13.30;99.90;;;;;;4909461;29;20051;-82
2022/10/09 10:04:59;;;;;;;6.50;1.88;;;13.40;99.90;;;;;;4941305;28;20076;-82
2022/10/09 10:07:27;;;;;;;8.85;2.97;;;13.60;99.90;;;;;;4927954;29;20419;-81
2022/10/09 10:10:23;;;;;;;7.95;2.42;;;13.60;99.90;;;;;;4927913;29;20102;-81
2022/10/09 10:12:52;;;;;;;5.38;2.13;;;13.80;99.90;;;;;;4926810;29;20409;-81
2022/10/09 10:15:22;;;;;;;7.70;1.67;;;14.00;99.90;;;;;;4942806;28;20067;-82
2022/10/09 10:17:53;;;;;;;8.95;1.90;;;14.10;99.90;;;;;;4942398;28;20048;-81
2022/10/09 10:20:19;;;;;;;6.10;1.30;;;14.30;99.90;;;;;;4910251;29;20039;-81
2022/10/09 10:22:53;;;;;;;8.38;2.40;;;14.50;99.90;;;;;;4940883;28;20053;-82
2022/10/09 10:25:22;;;;;;;11.88;1.98;;;14.70;99.90;;;;;;4943158;28;20042;-82
2022/10/09 10:27:51;;;;;;;12.82;1.80;;;14.90;99.90;;;;;;4897386;29;20036;-81
2022/10/09 10:30:18;;;;;;;12.77;3.28;;;15.10;99.90;;;;;;4913659;29;20035;-82
2022/10/09 10:33:09;;;;;;;8.93;2.65;;;15.20;99.90;;;;;;4927568;29;20058;-82
2022/10/09 10:35:38;;;;;;;6.13;1.23;;;15.30;99.90;;;;;;4925981;29;20070;-84
2022/10/09 10:38:21;;;;;;;6.22;1.83;;;15.50;99.90;;;;;;4940320;28;20058;-81
2022/10/09 10:41:18;;;;;;;8.63;2.35;;;15.70;99.90;;;;;;4943577;28;20060;-82
2022/10/09 10:43:58;;;;;;;9.85;1.77;;;15.90;99.90;;;;;;4946805;28;20043;-81
2022/10/09 10:46:30;;;;;;;9.65;1.75;;;16.10;99.90;;;;;;4945303;28;20124;-83
2022/10/09 10:48:58;;;;;;;7.45;1.60;;;16.10;99.90;;;;;;4919981;29;20468;-82
2022/10/09 10:51:47;;;;;;;8.20;2.00;;;16.10;99.90;;;;;;4914644;29;20062;-82
2022/10/09 10:54:32;;;;;;;12.65;2.00;;;16.20;99.90;;;;;;4913271;29;20044;-83
2022/10/09 10:57:26;;;;;;;6.53;2.38;;;16.40;99.90;;;;;;4943085;28;20094;-81
2022/10/09 11:00:11;;;;;;;7.18;2.35;;;16.50;99.90;;;;;;4930419;29;20619;-81
2022/10/09 11:02:49;;;;;;;7.05;1.88;;;16.60;99.90;;;;;;4940970;29;20050;-81
2022/10/09 11:05:26;;;;;;;7.05;2.00;;;16.80;99.90;;;;;;4940928;28;20040;-81
2022/10/09 11:07:58;;;;;;;7.25;1.67;;;16.80;99.90;;;;;;4928194;29;20036;-82
2022/10/09 11:10:45;;;;;;;8.77;1.92;;;16.80;99.90;;;;;;4937715;28;20484;-84
2022/10/09 11:13:14;;;;;;;8.88;2.28;;;16.90;99.90;;;;;;4940122;28;20047;-83
2022/10/09 11:16:31;;;;;;;8.27;1.90;;;17.00;99.90;;;;;;4895282;29;20035;-84
2022/10/09 11:19:58;;;;;;;5.68;2.63;;;17.00;99.90;;;;;;4919862;29;20391;-84
2022/10/09 11:22:48;;;;;;;6.25;1.50;;;17.20;99.90;;;;;;4928376;29;20044;-83
2022/10/09 11:25:35;;;;;;;8.13;2.13;;;17.30;99.90;;;;;;4937806;28;20047;-84
2022/10/09 11:28:03;;;;;;;10.73;2.10;;;17.40;99.90;;;;;;4939745;28;20062;-83
2022/10/09 11:30:38;;;;;;;6.57;2.30;;;17.50;99.90;;;;;;4929417;29;20044;-83
2022/10/09 11:33:32;;;;;;;10.35;2.30;;;17.60;99.90;;;;;;4942389;29;20056;-83
2022/10/09 11:36:09;;;;;;;8.55;3.25;;;17.80;99.90;;;;;;4902643;29;20047;-83
2022/10/09 11:39:12;;;;;;;6.82;2.20;;;17.80;99.90;;;;;;4942177;28;20047;-83
2022/10/09 11:41:39;;;;;;;10.82;2.10;;;17.60;99.90;;;;;;4895890;29;20095;-82
2022/10/09 11:44:17;;;;;;;9.35;2.33;;;17.70;99.90;;;;;;4924345;29;20039;-82
2022/10/09 11:46:57;;;;;;;5.95;2.00;;;17.80;99.90;;;;;;4925693;29;20043;-83
2022/10/09 11:49:46;;;;;;;7.38;2.42;;;17.70;99.90;;;;;;4896202;29;20047;-83
2022/10/09 11:52:39;;;;;;;10.00;3.10;;;17.80;99.90;;;;;;4928567;29;20039;-82
2022/10/09 11:55:17;;;;;;;7.47;2.30;;;17.80;99.90;;;;;;4911709;29;20531;-82
2022/10/09 11:57:43;;;;;;;7.82;2.30;;;17.70;99.90;;;;;;4899126;29;20047;-82
2022/10/09 12:00:09;;;;;;;8.32;2.20;;;17.80;99.90;;;;;;4915590;29;20488;-82
2022/10/09 12:02:36;;;;;;;9.18;2.10;;;17.80;99.90;;;;;;4896715;29;20040;-82
2022/10/09 12:05:16;;;;;;;7.47;2.50;;;17.80;99.90;;;;;;4931055;29;20098;-82
2022/10/09 12:07:41;;;;;;;10.07;2.25;;;17.90;99.90;;;;;;4944875;28;20044;-82
2022/10/09 12:10:45;;;;;;;5.18;2.47;;;18.20;99.90;;;;;;4938946;28;22158;-81
2022/10/09 12:13:39;;;;;;;8.35;2.72;;;18.00;99.90;;;;;;4928654;29;20055;-83
2022/10/09 12:16:07;;;;;;;11.25;2.60;;;18.10;99.90;;;;;;4928778;29;20444;-82
2022/10/09 12:18:39;;;;;;;6.40;2.08;;;18.00;99.90;;;;;;4945493;28;20098;-83
2022/10/09 12:21:22;;;;;;;10.82;3.38;;;18.00;99.90;;;;;;4926721;29;20484;-83
2022/10/09 12:23:50;;;;;;;8.32;2.72;;;17.80;99.90;;;;;;4913485;29;20100;-82
2022/10/09 12:26:16;;;;;;;9.00;2.92;;;17.90;99.90;;;;;;4911695;29;20457;-82
2022/10/09 12:28:53;;;;;;;9.60;2.72;;;17.90;99.90;;;;;;4944426;28;20046;-83
2022/10/09 12:31:34;;;;;;;10.27;2.58;;;18.00;99.90;;;;;;4896293;29;20044;-82
2022/10/09 12:34:04;;;;;;;8.63;2.58;;;18.00;99.90;;;;;;4943094;28;20036;-83
2022/10/09 12:36:31;;;;;;;8.77;3.10;;;18.00;99.90;;;;;;4928818;29;20035;-83
2022/10/09 12:39:10;;;;;;;10.13;2.83;;;18.00;99.90;;;;;;4944822;28;20404;-83
2022/10/09 12:41:36;;;;;;;10.77;2.75;;;17.90;99.90;;;;;;4926195;29;20051;-82
2022/10/09 12:44:05;;;;;;;7.35;2.80;;;17.80;99.90;;;;;;4916958;29;20048;-83
2022/10/09 12:46:33;;;;;;;10.52;2.78;;;17.80;99.90;;;;;;4923222;29;20063;-82
2022/10/09 12:49:02;;;;;;;7.55;2.83;;;17.70;99.90;;;;;;4928796;29;20143;-83
2022/10/09 12:51:30;;;;;;;6.72;2.58;;;17.70;99.90;;;;;;4928893;29;20510;-83
2022/10/09 12:53:55;;;;;;;8.23;2.20;;;17.80;99.90;;;;;;4943513;28;20043;-83
2022/10/09 12:56:26;;;;;;;5.93;1.83;;;17.80;99.90;;;;;;4926067;29;20058;-83
2022/10/09 12:58:53;;;;;;;10.38;3.10;;;17.80;99.90;;;;;;4927200;29;20047;-83
2022/10/09 13:01:20;;;;;;;5.95;1.92;;;18.10;99.90;;;;;;4915129;29;20122;-83
2022/10/09 13:04:04;;;;;;;8.88;3.15;;;17.80;99.90;;;;;;4927987;29;20047;-83
2022/10/09 13:06:36;;;;;;;9.93;3.00;;;17.70;99.90;;;;;;4913766;29;20549;-82
2022/10/09 13:09:05;;;;;;;7.93;2.30;;;17.70;99.90;;;;;;4933452;29;20108;-83
2022/10/09 13:11:40;;;;;;;9.40;2.63;;;17.60;99.90;;;;;;4928615;29;20040;-83
2022/10/09 13:14:21;;;;;;;10.30;2.47;;;17.60;99.90;;;;;;4922467;29;20039;-83
2022/10/09 13:16:47;;;;;;;12.45;3.20;;;17.40;99.90;;;;;;4921082;29;20681;-84
2022/10/09 13:19:25;;;;;;;11.00;2.97;;;17.40;99.90;;;;;;4892593;29;20171;-84
2022/10/09 13:22:13;;;;;;;9.45;2.42;;;17.20;99.90;;;;;;4910661;29;20047;-84
2022/10/09 13:24:38;;;;;;;294.00;33.40;;;17.20;99.90;;;;;;4913560;29;20039;-83
2022/10/09 13:27:04;;;;;;;10.50;2.67;;;17.20;99.90;;;;;;4894946;29;20055;-83
2022/10/09 13:29:30;;;;;;;7.43;2.63;;;17.30;99.90;;;;;;4925475;29;20071;-82
2022/10/09 13:31:56;;;;;;;10.40;1.77;;;17.30;99.90;;;;;;4943721;28;20784;-82
2022/10/09 13:34:23;;;;;;;11.05;3.22;;;17.30;99.90;;;;;;4910713;29;20094;-82
2022/10/09 13:36:49;;;;;;;10.43;2.60;;;17.30;99.90;;;;;;4944943;28;20062;-82
2022/10/09 13:39:15;;;;;;;7.85;1.85;;;17.20;99.90;;;;;;4898597;29;20040;-81
2022/10/09 13:41:41;;;;;;;9.27;2.15;;;17.20;99.90;;;;;;4929826;29;20073;-84
2022/10/09 13:44:07;;;;;;;6.22;1.75;;;17.10;99.90;;;;;;4931859;29;20031;-81